Time;durP1;ratioP1;P1;durP2;ratioP2;P2;SDS_P1;SDS_P2;PMS_P1;PMS_P2;Temp;Humidity;BMP_temperature;BMP_pressure;BME280_temperature;BME280_humidity;BME280_pressure;Samples;Min_cycle;Max_cycle;Signal;HPM_P1;HPM_P2
2021/11/12 00:13:21;;;;;;;56.42;13.73;;;4.80;82.00;;;;;;5050740;28;20060;-68
2021/11/12 00:15:53;;;;;;;31.77;12.77;;;4.80;82.00;;;;;;5052779;28;20062;-68
2021/11/12 00:18:22;;;;;;;51.08;14.50;;;4.80;81.90;;;;;;5053850;28;20059;-68
2021/11/12 00:20:48;;;;;;;51.33;14.32;;;4.90;82.10;;;;;;5056837;28;20032;-69
2021/11/12 00:23:15;;;;;;;54.08;13.88;;;4.90;82.10;;;;;;5054607;28;20041;-69
2021/11/12 00:25:42;;;;;;;26.05;13.45;;;4.90;82.00;;;;;;5051240;28;20108;-69
2021/11/12 00:28:11;;;;;;;47.03;14.13;;;4.90;82.00;;;;;;5056521;28;20037;-69
2021/11/12 00:33:20;;;;;;;38.00;13.50;;;4.90;82.20;;;;;;5054743;28;20044;-69
2021/11/12 00:36:34;;;;;;;26.10;12.18;;;4.90;82.20;;;;;;5054083;28;20056;-68
2021/11/12 00:38:38;;;;;;;32.13;12.98;;;4.90;82.10;;;;;;5055117;28;20036;-69
2021/11/12 00:43:52;;;;;;;37.58;13.63;;;5.00;82.10;;;;;;5051044;28;20043;-69
2021/11/12 00:46:33;;;;;;;21.48;13.70;;;5.00;82.10;;;;;;5052257;28;20119;-69
2021/11/12 00:49:03;;;;;;;64.60;14.60;;;5.00;82.20;;;;;;5056238;28;20040;-69
2021/11/12 00:54:24;;;;;;;43.67;14.27;;;5.00;82.30;;;;;;5051142;28;20029;-69
2021/11/12 00:56:51;;;;;;;41.60;14.32;;;5.00;82.10;;;;;;5052796;28;20293;-69
2021/11/12 00:59:18;;;;;;;54.58;14.48;;;5.00;82.20;;;;;;5051577;28;20131;-69
2021/11/12 01:01:44;;;;;;;36.70;15.95;;;5.00;82.20;;;;;;5054145;28;20119;-69
2021/11/12 01:04:14;;;;;;;41.97;15.43;;;5.10;82.40;;;;;;5053940;28;20041;-69
2021/11/12 01:06:40;;;;;;;33.67;13.82;;;5.00;82.50;;;;;;5054916;28;20160;-67
2021/11/12 01:09:11;;;;;;;54.00;14.73;;;5.10;82.50;;;;;;5053167;28;20081;-69
2021/11/12 01:11:39;;;;;;;25.17;13.85;;;5.10;82.50;;;;;;5051912;28;20032;-69
2021/11/12 01:14:06;;;;;;;77.63;14.50;;;5.10;82.50;;;;;;5051301;28;20039;-69
2021/11/12 01:16:32;;;;;;;53.55;13.98;;;5.10;82.50;;;;;;5048570;28;20124;-69
2021/11/12 01:18:58;;;;;;;43.28;14.45;;;5.10;82.30;;;;;;5049829;28;20108;-68
2021/11/12 01:21:24;;;;;;;91.93;14.57;;;5.10;82.30;;;;;;5054942;28;20035;-68
2021/11/12 01:23:53;;;;;;;69.10;14.35;;;5.10;82.20;;;;;;5052743;28;20032;-69
2021/11/12 01:26:21;;;;;;;49.05;13.95;;;5.10;81.90;;;;;;5051581;28;20024;-68
2021/11/12 01:28:47;;;;;;;35.08;13.43;;;5.10;81.80;;;;;;5054544;28;20179;-69
2021/11/12 01:31:14;;;;;;;34.97;13.73;;;5.10;81.90;;;;;;5053238;28;20530;-69
2021/11/12 01:33:41;;;;;;;19.88;12.45;;;5.00;82.00;;;;;;5053041;28;20287;-69
2021/11/12 01:38:54;;;;;;;45.42;14.77;;;5.10;82.50;;;;;;5053103;28;20048;-69
2021/11/12 01:41:21;;;;;;;50.47;13.48;;;5.00;82.40;;;;;;5053741;28;20111;-68
2021/11/12 01:43:49;;;;;;;22.42;13.20;;;5.00;82.30;;;;;;5052828;28;20237;-69
2021/11/12 01:51:50;;;;;;;36.67;14.18;;;5.10;82.40;;;;;;5054796;28;20032;-69
2021/11/12 01:59:15;;;;;;;35.55;14.23;;;5.10;83.00;;;;;;5053603;28;20034;-69
2021/11/12 02:01:58;;;;;;;19.10;12.90;;;5.10;83.00;;;;;;5055296;28;20037;-68
2021/11/12 02:04:27;;;;;;;28.65;14.35;;;5.10;82.20;;;;;;5049947;28;20431;-69
2021/11/12 02:06:53;;;;;;;27.67;14.35;;;5.10;82.00;;;;;;5054492;28;20040;-68
2021/11/12 02:09:20;;;;;;;28.77;13.65;;;5.10;82.00;;;;;;5058014;28;20037;-69
2021/11/12 02:11:50;;;;;;;37.58;15.13;;;5.10;82.00;;;;;;5055329;28;20044;-68
2021/11/12 02:14:17;;;;;;;30.95;14.05;;;5.10;82.00;;;;;;5052917;28;20112;-68
2021/11/12 02:16:54;;;;;;;36.55;13.70;;;5.10;82.00;;;;;;5051870;28;20064;-68
2021/11/12 02:19:19;;;;;;;47.10;14.73;;;5.10;82.10;;;;;;5057677;28;20025;-68
2021/11/12 02:21:54;;;;;;;35.38;14.60;;;5.00;82.00;;;;;;5056287;28;20556;-68
2021/11/12 02:24:20;;;;;;;19.10;13.38;;;5.00;81.90;;;;;;5055776;28;20116;-68
2021/11/12 02:26:54;;;;;;;20.83;13.38;;;5.00;82.00;;;;;;5053731;28;20033;-68
2021/11/12 02:29:20;;;;;;;18.20;13.93;;;5.00;82.10;;;;;;5056955;28;20041;-68
2021/11/12 02:31:47;;;;;;;29.65;13.50;;;5.00;82.10;;;;;;5053680;28;20037;-68
2021/11/12 02:34:14;;;;;;;29.50;14.10;;;4.90;82.10;;;;;;5054294;28;20045;-68
2021/11/12 02:36:41;;;;;;;18.90;13.75;;;5.00;82.10;;;;;;5056296;28;20229;-68
2021/11/12 02:39:10;;;;;;;50.30;13.93;;;5.00;81.90;;;;;;5057609;28;20036;-68
2021/11/12 02:41:37;;;;;;;73.63;14.57;;;5.00;81.80;;;;;;5054612;28;20041;-68
2021/11/12 02:44:03;;;;;;;73.35;15.60;;;4.90;81.40;;;;;;5056873;28;20039;-68
2021/11/12 02:46:30;;;;;;;67.75;14.80;;;4.90;81.40;;;;;;5054785;28;20041;-68
2021/11/12 02:48:56;;;;;;;76.60;15.43;;;4.80;81.50;;;;;;5057847;28;20057;-68
2021/11/12 02:51:28;;;;;;;18.20;13.35;;;4.80;81.60;;;;;;5055619;28;20028;-68
2021/11/12 02:53:57;;;;;;;28.23;13.23;;;4.70;81.70;;;;;;5057728;28;20032;-68
2021/11/12 02:56:29;;;;;;;25.02;14.10;;;4.70;82.00;;;;;;5052487;28;20119;-69
2021/11/12 02:59:03;;;;;;;76.25;15.25;;;4.70;82.30;;;;;;5058188;28;20033;-68
2021/11/12 03:01:34;;;;;;;66.55;15.23;;;4.70;82.50;;;;;;5053917;28;20056;-68
2021/11/12 03:04:00;;;;;;;67.15;14.45;;;4.70;82.30;;;;;;5057357;28;20360;-68
2021/11/12 03:06:26;;;;;;;127.40;16.38;;;4.70;82.30;;;;;;5055046;28;20063;-69
2021/11/12 03:08:53;;;;;;;89.60;15.77;;;4.60;82.20;;;;;;5053903;28;20033;-68
2021/11/12 03:11:20;;;;;;;143.10;16.60;;;4.60;82.10;;;;;;5054208;28;20041;-68
2021/11/12 03:13:46;;;;;;;167.43;17.33;;;4.60;82.10;;;;;;5054645;28;20579;-68
2021/11/12 03:16:15;;;;;;;123.80;17.30;;;4.60;82.00;;;;;;5053420;28;20086;-68
2021/11/12 03:18:42;;;;;;;30.92;13.90;;;4.50;82.10;;;;;;5051947;28;20531;-69
2021/11/12 03:21:10;;;;;;;17.92;12.60;;;4.40;82.20;;;;;;5054303;28;20909;-68
2021/11/12 03:23:40;;;;;;;52.47;13.70;;;4.40;83.20;;;;;;5055390;28;20036;-68
2021/11/12 04:20:05;;;;;;;98.73;17.13;;;4.50;83.30;;;;;;5053711;28;20071;-68
2021/11/12 04:39:57;;;;;;;35.85;16.42;;;4.40;84.00;;;;;;5051728;28;20095;-67
2021/11/12 04:49:54;;;;;;;127.33;16.23;;;4.30;83.00;;;;;;5053989;28;20423;-68
2021/11/12 05:44:33;;;;;;;64.60;13.57;;;3.70;83.90;;;;;;5041042;28;20083;-68
2021/11/12 05:49:42;;;;;;;101.63;14.23;;;3.70;84.00;;;;;;5033244;28;20033;-68
2021/11/12 05:57:31;;;;;;;59.33;12.50;;;3.80;84.00;;;;;;5038659;28;20064;-69
2021/11/12 05:59:57;;;;;;;32.47;11.65;;;3.70;84.10;;;;;;5039677;28;20583;-64
2021/11/12 06:02:23;;;;;;;58.17;12.32;;;3.70;83.70;;;;;;5038632;28;20037;-69
2021/11/12 06:04:50;;;;;;;30.73;11.60;;;3.70;83.80;;;;;;5038536;28;20095;-69
2021/11/12 06:07:16;;;;;;;32.55;11.35;;;3.70;84.00;;;;;;5039497;28;20033;-69
2021/11/12 06:09:42;;;;;;;34.17;11.75;;;3.80;84.20;;;;;;5038807;28;20029;-68
2021/11/12 06:12:11;;;;;;;35.53;11.75;;;3.80;84.30;;;;;;5037621;28;20030;-69
2021/11/12 06:14:37;;;;;;;31.95;11.90;;;3.80;84.40;;;;;;5039233;28;20037;-69
2021/11/12 06:17:03;;;;;;;30.88;11.65;;;3.80;84.40;;;;;;5040238;28;20044;-69
2021/11/12 06:19:29;;;;;;;57.55;13.90;;;3.80;84.40;;;;;;5036845;28;20029;-69
2021/11/12 06:21:55;;;;;;;24.88;11.20;;;3.90;84.40;;;;;;5039138;28;20037;-69
2021/11/12 06:24:21;;;;;;;17.65;12.50;;;3.90;84.20;;;;;;5037736;28;20406;-68
2021/11/12 06:26:46;;;;;;;71.20;12.32;;;3.90;84.20;;;;;;5038672;28;20040;-69
2021/11/12 06:29:13;;;;;;;34.20;11.10;;;4.00;84.40;;;;;;5038893;28;20041;-69
2021/11/12 06:31:38;;;;;;;25.05;12.57;;;4.00;84.20;;;;;;5039808;28;20041;-69
2021/11/12 06:34:04;;;;;;;94.38;12.35;;;4.00;84.20;;;;;;5040076;28;20128;-69
2021/11/12 06:36:30;;;;;;;21.98;10.55;;;4.00;84.10;;;;;;5037501;28;20116;-69
2021/11/12 06:38:56;;;;;;;19.73;11.55;;;4.00;84.00;;;;;;5036323;28;20334;-69
2021/11/12 06:42:11;;;;;;;72.18;13.35;;;4.00;84.00;;;;;;5037255;28;20099;-68
2021/11/12 06:49:48;;;;;;;116.32;12.98;;;4.00;83.00;;;;;;5035838;28;20087;-68
2021/11/12 06:52:14;;;;;;;62.30;11.00;;;3.90;83.20;;;;;;5037132;28;20500;-68
2021/11/12 06:54:41;;;;;;;38.60;11.35;;;3.80;83.30;;;;;;5033411;28;20412;-69
2021/11/12 06:57:07;;;;;;;60.53;11.20;;;3.80;83.60;;;;;;5036490;28;20117;-68
2021/11/12 06:59:33;;;;;;;106.70;13.23;;;3.80;83.70;;;;;;5038137;28;20124;-69
2021/11/12 07:01:58;;;;;;;62.85;10.52;;;3.80;83.70;;;;;;5037760;28;20037;-69
2021/11/12 07:04:24;;;;;;;54.35;11.65;;;3.80;83.70;;;;;;5037000;28;20208;-68
2021/11/12 07:06:50;;;;;;;68.30;12.93;;;3.80;83.90;;;;;;5038095;28;20563;-69
2021/11/12 07:09:16;;;;;;;51.00;12.13;;;3.70;84.00;;;;;;5035712;28;20463;-69
2021/11/12 07:11:42;;;;;;;44.30;11.77;;;3.70;85.00;;;;;;5037433;28;20081;-69
2021/11/12 07:14:08;;;;;;;17.55;10.88;;;3.80;84.20;;;;;;5037212;28;20065;-68
2021/11/12 07:16:34;;;;;;;30.42;12.07;;;3.80;84.20;;;;;;5037014;28;20051;-69
2021/11/12 07:19:01;;;;;;;23.08;11.43;;;3.80;85.10;;;;;;5037243;28;20035;-68
2021/11/12 07:21:27;;;;;;;37.80;11.85;;;3.80;84.20;;;;;;5038145;28;20091;-68
2021/11/12 07:23:55;;;;;;;33.25;11.63;;;3.90;84.30;;;;;;5036214;28;20489;-69
2021/11/12 07:26:21;;;;;;;37.35;11.35;;;3.90;84.40;;;;;;5039469;28;20150;-69
2021/11/12 07:28:48;;;;;;;132.70;14.45;;;3.90;84.40;;;;;;5038743;28;20037;-68
2021/11/12 07:31:16;;;;;;;34.25;11.68;;;4.00;84.30;;;;;;5035789;28;20091;-69
2021/11/12 07:33:43;;;;;;;66.68;12.60;;;4.00;84.50;;;;;;5038145;28;20056;-69
2021/11/12 07:39:15;;;;;;;84.50;13.82;;;4.00;84.00;;;;;;5037143;28;20033;-69
2021/11/12 07:46:57;;;;;;;14.35;11.20;;;4.00;83.30;;;;;;5035480;28;20033;-69
2021/11/12 07:49:23;;;;;;;92.30;14.23;;;4.00;83.60;;;;;;5037608;28;20026;-69
2021/11/12 07:51:49;;;;;;;27.33;10.55;;;3.90;84.00;;;;;;5037425;28;20557;-69
2021/11/12 07:54:15;;;;;;;70.43;11.07;;;3.90;83.90;;;;;;5037248;28;20492;-69
2021/11/12 07:56:41;;;;;;;17.65;10.50;;;3.90;84.20;;;;;;5037520;28;20053;-69
2021/11/12 07:59:06;;;;;;;33.97;12.02;;;3.90;84.30;;;;;;5037061;28;20055;-67
2021/11/12 08:01:32;;;;;;;24.50;10.30;;;3.90;84.40;;;;;;5039978;28;20037;-69
2021/11/12 08:04:00;;;;;;;40.00;11.00;;;4.00;84.60;;;;;;5032740;28;20029;-67
2021/11/12 08:06:28;;;;;;;24.27;11.05;;;4.00;84.70;;;;;;5034498;28;20037;-69
2021/11/12 08:09:04;;;;;;;86.07;12.48;;;4.10;84.70;;;;;;5037620;28;20086;-68
2021/11/12 08:11:52;;;;;;;22.25;10.50;;;4.10;85.30;;;;;;5036787;28;20037;-69
2021/11/12 08:14:25;;;;;;;69.65;12.50;;;4.10;84.00;;;;;;5036972;28;20333;-68
2021/11/12 08:17:09;;;;;;;78.50;14.13;;;4.10;84.10;;;;;;5035951;28;20037;-67
2021/11/12 08:19:43;;;;;;;78.72;13.18;;;4.10;83.90;;;;;;5034924;28;20500;-69
2021/11/12 08:22:12;;;;;;;25.02;10.18;;;4.10;83.70;;;;;;5036629;28;20029;-68
2021/11/12 08:45:14;;;;;;;19.80;10.82;;;4.10;84.50;;;;;;5036955;28;20033;-68
2021/11/12 08:47:43;;;;;;;33.28;11.05;;;4.10;84.50;;;;;;5035058;28;20040;-69
2021/11/12 08:50:16;;;;;;;35.85;11.75;;;4.20;84.60;;;;;;5035399;28;20041;-68
2021/11/12 08:52:43;;;;;;;34.30;12.35;;;4.20;84.70;;;;;;5035726;28;20116;-69
2021/11/12 08:55:09;;;;;;;46.90;12.80;;;4.20;84.70;;;;;;5035294;28;20038;-68
2021/11/12 08:57:35;;;;;;;31.02;11.27;;;4.30;84.70;;;;;;5035394;28;20029;-67
2021/11/12 09:00:04;;;;;;;44.88;12.60;;;4.30;84.60;;;;;;5034971;28;20087;-68
2021/11/12 09:02:29;;;;;;;58.65;11.88;;;4.40;84.60;;;;;;5030770;28;20116;-70
2021/11/12 09:04:55;;;;;;;19.38;11.77;;;4.40;84.50;;;;;;5037089;28;20129;-68
2021/11/12 09:07:22;;;;;;;67.05;13.02;;;4.40;84.40;;;;;;5034921;28;20065;-69
2021/11/12 09:09:51;;;;;;;37.15;11.55;;;4.50;84.40;;;;;;5035193;28;20431;-68
2021/11/12 09:12:18;;;;;;;39.38;12.15;;;4.50;84.20;;;;;;5035382;28;20045;-69
2021/11/12 09:14:48;;;;;;;24.55;10.98;;;4.50;84.20;;;;;;5035283;28;20048;-69
2021/11/12 09:17:17;;;;;;;61.00;12.48;;;4.50;84.20;;;;;;5036574;28;20215;-70
2021/11/12 09:19:48;;;;;;;54.83;12.75;;;4.60;84.20;;;;;;5038641;28;20087;-69
2021/11/12 09:22:16;;;;;;;22.90;12.25;;;4.60;84.30;;;;;;5040142;28;20504;-69
2021/11/12 09:24:43;;;;;;;56.22;12.93;;;4.60;84.10;;;;;;5039734;28;20034;-69
2021/11/12 09:27:09;;;;;;;99.15;13.73;;;4.60;84.10;;;;;;5039485;28;20032;-69
2021/11/12 09:29:35;;;;;;;77.90;13.95;;;4.60;84.00;;;;;;5039008;28;20294;-69
2021/11/12 09:32:01;;;;;;;97.90;12.88;;;4.70;83.70;;;;;;5040064;28;20154;-69
2021/11/12 09:34:28;;;;;;;143.70;13.13;;;4.60;83.50;;;;;;5039138;28;20065;-69
2021/11/12 09:36:54;;;;;;;52.75;12.95;;;4.60;83.60;;;;;;5039047;28;20042;-69
2021/11/12 09:39:20;;;;;;;22.58;12.43;;;4.60;83.50;;;;;;5038833;28;20025;-69
2021/11/12 09:41:46;;;;;;;70.00;13.25;;;4.60;83.90;;;;;;5039945;28;20567;-69
2021/11/12 09:44:12;;;;;;;102.40;14.52;;;4.60;84.20;;;;;;5038319;28;20022;-69
2021/11/12 09:46:38;;;;;;;49.85;12.82;;;4.60;84.30;;;;;;5037087;28;20033;-68
2021/11/12 09:49:04;;;;;;;89.28;13.38;;;4.60;84.20;;;;;;5039783;28;20039;-68
2021/11/12 09:51:31;;;;;;;123.28;14.52;;;4.60;84.50;;;;;;5038577;28;20512;-69
2021/11/12 09:53:57;;;;;;;142.25;14.93;;;4.70;84.50;;;;;;5039707;28;20039;-69
2021/11/12 09:56:23;;;;;;;69.10;13.60;;;4.70;84.10;;;;;;5039874;28;20108;-69
2021/11/12 09:58:49;;;;;;;87.68;13.50;;;4.70;84.00;;;;;;5039940;28;20049;-69
2021/11/12 10:01:17;;;;;;;44.80;12.18;;;4.70;84.20;;;;;;5040095;28;20039;-69
2021/11/12 10:03:46;;;;;;;32.80;12.77;;;4.70;84.40;;;;;;5039769;28;20037;-69
2021/11/12 10:06:23;;;;;;;123.28;15.52;;;4.70;84.60;;;;;;5037289;28;20038;-69
2021/11/12 10:08:50;;;;;;;114.60;16.00;;;4.70;84.80;;;;;;5041363;28;20735;-69
2021/11/12 10:11:47;;;;;;;68.53;13.90;;;4.80;84.50;;;;;;5037217;27;20040;-70
2021/11/12 10:14:13;;;;;;;67.70;13.70;;;4.80;84.60;;;;;;5044431;28;20051;-69
2021/11/12 10:16:42;;;;;;;128.73;15.20;;;4.80;84.50;;;;;;5035242;28;20036;-68
2021/11/12 10:19:18;;;;;;;35.33;11.73;;;4.70;84.50;;;;;;5036380;27;20500;-69
2021/11/12 10:21:52;;;;;;;50.47;12.90;;;4.70;84.40;;;;;;5032724;28;20037;-68
2021/11/12 10:24:22;;;;;;;100.43;13.55;;;4.80;84.60;;;;;;5036881;27;20063;-70
2021/11/12 10:26:51;;;;;;;108.93;14.23;;;4.80;84.60;;;;;;5037723;27;20038;-69
2021/11/12 10:29:23;;;;;;;49.67;13.23;;;4.80;84.60;;;;;;5037908;28;20037;-69
2021/11/12 10:31:52;;;;;;;145.00;14.73;;;4.80;84.40;;;;;;5037209;27;20036;-69
2021/11/12 10:34:23;;;;;;;59.40;12.45;;;4.80;84.30;;;;;;5053301;28;20025;-69
2021/11/12 10:36:55;;;;;;;90.82;14.07;;;4.90;84.40;;;;;;5059179;28;20063;-69
2021/11/12 10:39:45;;;;;;;105.35;13.90;;;4.80;84.40;;;;;;5060223;28;20032;-69
2021/11/12 10:42:15;;;;;;;75.85;14.30;;;4.80;84.50;;;;;;5056264;28;20037;-69
2021/11/12 10:44:42;;;;;;;49.00;12.60;;;4.80;84.50;;;;;;5057919;28;20040;-69
2021/11/12 10:47:08;;;;;;;71.80;14.35;;;4.90;84.70;;;;;;5062692;28;20120;-69
2021/11/12 10:49:40;;;;;;;35.17;12.95;;;4.90;85.00;;;;;;5062348;28;20607;-69
2021/11/12 10:52:10;;;;;;;166.32;16.30;;;4.90;85.10;;;;;;5060081;28;20029;-69
2021/11/12 10:55:00;;;;;;;84.00;14.02;;;5.00;85.00;;;;;;5058614;28;20412;-69
2021/11/12 10:57:41;;;;;;;62.72;13.32;;;5.00;84.90;;;;;;5062055;28;20403;-69
2021/11/12 11:00:24;;;;;;;81.55;14.35;;;5.00;84.80;;;;;;5057888;28;20032;-69
2021/11/12 11:02:51;;;;;;;59.22;13.48;;;5.10;84.90;;;;;;5060042;28;20139;-69
2021/11/12 11:05:20;;;;;;;83.22;13.95;;;5.00;84.60;;;;;;5057139;28;20327;-68
2021/11/12 11:07:51;;;;;;;30.30;12.50;;;5.10;84.70;;;;;;5057352;28;20044;-68
2021/11/12 11:10:40;;;;;;;51.97;13.82;;;5.10;84.90;;;;;;5065964;28;20040;-68
2021/11/12 11:13:20;;;;;;;28.45;13.40;;;5.10;85.20;;;;;;5055748;28;20040;-69
2021/11/12 11:15:47;;;;;;;80.60;14.40;;;5.20;85.10;;;;;;5059453;28;20396;-67
2021/11/12 11:18:26;;;;;;;32.03;13.52;;;5.30;85.10;;;;;;5060904;28;20510;-69
2021/11/12 11:20:55;;;;;;;36.10;14.60;;;5.30;84.80;;;;;;5058359;28;20060;-69
2021/11/12 11:23:21;;;;;;;35.53;13.10;;;5.40;84.90;;;;;;5059747;28;20025;-68
2021/11/12 11:25:58;;;;;;;112.03;14.25;;;5.40;85.00;;;;;;5058027;28;20029;-69
2021/11/12 11:28:24;;;;;;;95.20;14.35;;;5.40;85.00;;;;;;5058935;28;20040;-68
2021/11/12 11:30:49;;;;;;;61.83;13.32;;;5.50;84.60;;;;;;5058930;28;20033;-69
2021/11/12 11:33:17;;;;;;;28.27;12.20;;;5.50;84.40;;;;;;5058661;28;20194;-70
2021/11/12 11:35:44;;;;;;;48.13;14.05;;;5.50;84.50;;;;;;5059716;28;20113;-69
2021/11/12 11:38:13;;;;;;;22.50;12.13;;;5.50;84.60;;;;;;5058488;28;20433;-68
2021/11/12 11:40:40;;;;;;;34.50;12.60;;;5.60;84.70;;;;;;5056801;28;20054;-69
2021/11/12 11:43:09;;;;;;;31.05;11.82;;;5.60;84.70;;;;;;5057834;28;20162;-69
2021/11/12 11:45:35;;;;;;;37.35;12.35;;;5.60;84.70;;;;;;5058551;28;20495;-68
2021/11/12 11:48:01;;;;;;;37.85;13.20;;;5.70;84.60;;;;;;5060246;28;20155;-68
2021/11/12 11:50:32;;;;;;;44.40;13.23;;;5.70;84.20;;;;;;5061831;28;20033;-69
2021/11/12 11:53:19;;;;;;;38.42;13.05;;;5.70;84.10;;;;;;5060030;28;20041;-69
2021/11/12 11:55:45;;;;;;;47.15;14.20;;;5.70;84.20;;;;;;5058156;28;20123;-69
2021/11/12 11:58:49;;;;;;;55.40;14.10;;;5.70;83.90;;;;;;5060510;28;20115;-69
2021/11/12 12:01:23;;;;;;;48.65;13.27;;;5.70;84.40;;;;;;5058010;28;20040;-69
2021/11/12 12:03:51;;;;;;;;;;;5.70;84.20;;;;;;5058841;28;20511;-69
2021/11/12 12:06:18;;;;;;;105.28;14.68;;;5.70;84.70;;;;;;5057804;28;19920;-69
2021/11/12 12:09:09;;;;;;;57.33;15.45;;;5.70;84.10;;;;;;5060455;28;21083;-69
2021/11/12 12:11:50;;;;;;;50.00;15.20;;;5.70;84.30;;;;;;5059509;28;20525;-69
2021/11/12 12:14:32;;;;;;;43.80;14.60;;;5.70;84.40;;;;;;5060205;28;20066;-69
2021/11/12 12:17:06;;;;;;;38.47;14.55;;;5.80;84.20;;;;;;5057853;28;20068;-69
2021/11/12 12:19:46;;;;;;;27.67;15.45;;;5.80;84.30;;;;;;5057045;28;20071;-69
2021/11/12 13:23:34;;;;;;;29.52;13.88;;;6.10;84.10;;;;;;5057134;28;20064;-68
2021/11/12 13:26:00;;;;;;;35.78;16.98;;;6.10;84.40;;;;;;5056852;28;20029;-69
2021/11/12 13:28:34;;;;;;;55.50;20.88;;;6.10;84.80;;;;;;5057672;28;20033;-68
2021/11/12 13:31:18;;;;;;;50.58;18.05;;;6.10;84.80;;;;;;5057102;28;20118;-68
2021/11/12 13:33:52;;;;;;;50.00;16.30;;;6.00;84.90;;;;;;5056580;28;20041;-68
2021/11/12 13:36:32;;;;;;;34.00;16.55;;;6.20;84.70;;;;;;5059756;28;20036;-69
2021/11/12 13:39:18;;;;;;;33.75;14.98;;;6.20;84.60;;;;;;5057756;28;20040;-69
2021/11/12 13:41:47;;;;;;;50.78;14.68;;;6.30;84.80;;;;;;5054681;28;20546;-69
2021/11/12 13:44:18;;;;;;;39.97;13.38;;;6.30;85.40;;;;;;5057174;28;20041;-68
2021/11/12 13:47:00;;;;;;;53.53;13.93;;;6.30;84.50;;;;;;5056516;28;20720;-68
2021/11/12 13:49:28;;;;;;;46.40;14.15;;;6.30;84.30;;;;;;5058629;28;20035;-68
2021/11/12 13:52:01;;;;;;;43.53;15.18;;;6.30;84.10;;;;;;5056921;28;20021;-68
2021/11/12 13:54:26;;;;;;;25.45;14.02;;;6.30;84.00;;;;;;5057208;28;20060;-69
2021/11/12 13:56:52;;;;;;;54.05;14.98;;;6.20;84.00;;;;;;5058151;28;20033;-68
2021/11/12 13:59:18;;;;;;;46.10;14.55;;;6.30;84.30;;;;;;5058247;28;20029;-69
2021/11/12 14:01:43;;;;;;;59.25;14.70;;;6.20;84.40;;;;;;5055681;28;20028;-69
2021/11/12 14:04:29;;;;;;;33.70;14.52;;;6.20;84.40;;;;;;5060371;28;20029;-69
2021/11/12 14:06:56;;;;;;;33.80;13.43;;;6.20;84.40;;;;;;5061275;28;20037;-68
2021/11/12 14:09:24;;;;;;;53.67;13.55;;;6.30;84.10;;;;;;5063406;28;20033;-69
2021/11/12 14:12:05;;;;;;;128.23;14.10;;;6.20;84.10;;;;;;5059381;28;20029;-68
2021/11/12 14:14:33;;;;;;;39.25;13.48;;;6.20;84.30;;;;;;5059958;28;20024;-68
2021/11/12 14:17:23;;;;;;;97.13;14.45;;;6.20;84.20;;;;;;5062021;28;20052;-69
2021/11/12 14:20:09;;;;;;;135.20;15.05;;;6.20;84.30;;;;;;5059964;28;20586;-69
2021/11/12 14:22:47;;;;;;;25.25;13.85;;;6.20;84.00;;;;;;5062393;28;20496;-69
2021/11/12 14:27:55;;;;;;;52.65;14.85;;;6.10;84.20;;;;;;5059496;28;20032;-68
2021/11/12 14:35:43;;;;;;;46.38;14.25;;;6.20;84.70;;;;;;5062030;28;20037;-68
2021/11/12 14:38:55;;;;;;;104.38;16.23;;;6.20;84.70;;;;;;5061692;28;20055;-69
2021/11/12 14:54:39;;;;;;;64.22;13.90;;;6.40;84.40;;;;;;5061091;28;20029;-68
2021/11/12 14:57:42;;;;;;;58.53;14.95;;;6.30;84.20;;;;;;5059351;28;20047;-68
2021/11/12 15:00:08;;;;;;;101.22;14.85;;;6.30;84.10;;;;;;5060510;28;20033;-68
2021/11/12 15:02:35;;;;;;;83.40;13.82;;;6.40;84.20;;;;;;5058559;28;20036;-68
2021/11/12 15:05:01;;;;;;;85.10;14.57;;;6.30;84.00;;;;;;5059351;28;20115;-68
2021/11/12 15:07:34;;;;;;;68.57;13.32;;;6.30;84.00;;;;;;5059316;28;20125;-69
2021/11/12 15:10:00;;;;;;;90.53;13.75;;;6.30;84.10;;;;;;5058321;28;20033;-69
2021/11/12 15:12:27;;;;;;;101.55;14.48;;;6.30;84.20;;;;;;5059818;28;20101;-70
2021/11/12 15:14:59;;;;;;;134.90;14.90;;;6.30;84.00;;;;;;5061664;28;20613;-69
2021/11/12 15:17:25;;;;;;;89.93;13.48;;;6.30;83.90;;;;;;5059978;28;20115;-69
2021/11/12 15:19:51;;;;;;;124.85;15.45;;;6.30;83.90;;;;;;5059988;28;20025;-69
2021/11/12 15:25:01;;;;;;;173.13;19.02;;;6.30;83.90;;;;;;5057304;28;20040;-67
2021/11/12 15:27:44;;;;;;;93.55;14.05;;;6.20;83.90;;;;;;5056416;28;20063;-68
2021/11/12 15:33:16;;;;;;;146.35;15.10;;;6.20;83.90;;;;;;5058996;28;20512;-69
2021/11/12 15:35:44;;;;;;;100.22;12.85;;;6.20;83.80;;;;;;5056327;28;20460;-69
2021/11/12 15:40:47;;;;;;;130.80;14.10;;;6.10;84.00;;;;;;5059511;28;20508;-69
2021/11/12 15:46:07;;;;;;;163.23;15.75;;;6.10;84.30;;;;;;5055844;28;20032;-70
2021/11/12 15:48:26;;;;;;;58.22;12.80;;;6.10;84.10;;;;;;5057145;28;20040;-69
2021/11/12 15:53:50;;;;;;;104.32;15.20;;;6.10;84.20;;;;;;5060592;28;20507;-68
2021/11/12 15:59:25;;;;;;;74.93;15.10;;;6.10;84.20;;;;;;5059341;28;20336;-69
2021/11/12 16:09:35;;;;;;;164.10;18.17;;;6.10;84.20;;;;;;5055441;28;20044;-68
2021/11/12 16:25:16;;;;;;;23.67;14.80;;;5.80;84.70;;;;;;5054538;28;20099;-68
2021/11/12 16:27:47;;;;;;;57.40;15.32;;;5.90;84.90;;;;;;5057021;28;20517;-68
2021/11/12 16:30:15;;;;;;;84.75;16.95;;;5.90;85.00;;;;;;5056691;28;20036;-68
2021/11/12 16:35:09;;;;;;;74.00;14.70;;;5.90;85.00;;;;;;5057026;28;20044;-68
2021/11/12 16:37:35;;;;;;;97.53;17.42;;;5.90;84.70;;;;;;5053855;28;20036;-68
2021/11/12 16:42:56;;;;;;;83.70;15.57;;;5.90;84.70;;;;;;5056949;28;20504;-68
2021/11/12 17:00:54;;;;;;;21.02;12.13;;;5.70;84.60;;;;;;5057583;28;20305;-68
2021/11/12 17:08:36;;;;;;;25.23;12.27;;;5.60;85.20;;;;;;5057713;28;20036;-69
2021/11/12 17:14:05;;;;;;;44.45;14.88;;;5.70;85.40;;;;;;5027807;28;20519;-68
2021/11/12 17:16:44;;;;;;;70.00;15.50;;;5.70;85.40;;;;;;5031043;27;20033;-68
2021/11/12 17:22:32;;;;;;;62.90;13.75;;;5.80;85.30;;;;;;5029820;28;20037;-68
2021/11/12 21:46:22;;;;;;;17.02;11.93;;;5.50;86.20;;;;;;5056035;28;20033;-69
2021/11/12 21:48:58;;;;;;;21.92;12.15;;;5.50;86.50;;;;;;5056541;28;20554;-68
2021/11/12 21:51:24;;;;;;;24.67;12.50;;;5.60;86.10;;;;;;5055196;28;20024;-69
2021/11/12 21:53:54;;;;;;;23.98;11.90;;;5.60;86.00;;;;;;5056762;28;20021;-69
2021/11/12 21:56:20;;;;;;;24.75;11.27;;;5.60;86.00;;;;;;5056338;28;20555;-68
2021/11/12 21:58:46;;;;;;;24.67;11.85;;;5.60;85.90;;;;;;5057298;28;20491;-68
2021/11/12 22:01:13;;;;;;;26.88;12.20;;;5.60;85.80;;;;;;5057680;28;20047;-68
2021/11/12 22:03:39;;;;;;;32.65;12.32;;;5.60;85.80;;;;;;5055477;28;20071;-69
2021/11/12 22:06:05;;;;;;;65.50;12.05;;;5.60;85.80;;;;;;5053924;28;20571;-68
2021/11/12 22:08:32;;;;;;;26.80;11.68;;;5.60;85.80;;;;;;5055701;28;20108;-68
2021/11/12 22:11:00;;;;;;;38.75;11.32;;;5.60;85.70;;;;;;5056770;28;20067;-68
2021/11/12 22:13:27;;;;;;;51.15;12.10;;;5.60;85.70;;;;;;5057105;28;20028;-70
2021/11/12 22:15:52;;;;;;;38.90;12.35;;;5.50;85.60;;;;;;5056209;28;20041;-68
2021/11/12 22:18:18;;;;;;;30.23;11.48;;;5.50;85.60;;;;;;5054007;28;20090;-68
2021/11/12 22:20:44;;;;;;;17.73;11.65;;;5.50;85.60;;;;;;5055736;28;22273;-68
2021/11/12 22:23:10;;;;;;;21.75;11.57;;;5.50;85.70;;;;;;5055664;28;20563;-68
2021/11/12 22:25:37;;;;;;;33.55;11.20;;;5.50;85.80;;;;;;5060339;28;20031;-68
2021/11/12 22:28:03;;;;;;;17.30;11.20;;;5.40;85.80;;;;;;5060369;28;20230;-69
2021/11/12 22:30:29;;;;;;;28.98;13.82;;;5.40;85.80;;;;;;5058295;28;20037;-69
2021/11/12 22:32:55;;;;;;;17.20;10.98;;;5.40;85.80;;;;;;5060577;28;20113;-68
2021/11/12 22:35:23;;;;;;;26.20;10.50;;;5.50;85.90;;;;;;5060141;28;20168;-67
2021/11/12 22:37:49;;;;;;;32.40;10.93;;;5.40;85.90;;;;;;5059101;28;20033;-68
2021/11/12 22:40:15;;;;;;;31.85;10.07;;;5.40;85.80;;;;;;5058405;28;20040;-67
2021/11/12 22:42:41;;;;;;;19.70;11.05;;;5.40;85.90;;;;;;5057878;28;20025;-67
2021/11/12 22:45:07;;;;;;;20.98;11.82;;;5.40;86.00;;;;;;5058868;28;20071;-67
2021/11/12 22:47:33;;;;;;;19.02;12.75;;;5.40;86.10;;;;;;5059973;28;20028;-67
2021/11/12 22:50:00;;;;;;;23.73;11.70;;;5.40;86.20;;;;;;5060319;28;20037;-67
2021/11/12 22:52:26;;;;;;;29.02;10.90;;;5.50;86.30;;;;;;5058340;28;20067;-67
2021/11/12 22:54:51;;;;;;;25.42;11.35;;;5.40;86.20;;;;;;5060246;28;20063;-68
2021/11/12 22:57:18;;;;;;;18.55;10.65;;;5.40;86.00;;;;;;5059041;28;20058;-67
2021/11/12 22:59:45;;;;;;;36.22;11.90;;;5.40;85.90;;;;;;5063881;28;20035;-67
2021/11/12 23:02:11;;;;;;;20.90;11.50;;;5.40;86.00;;;;;;5058220;28;20036;-67
2021/11/12 23:04:38;;;;;;;20.08;11.73;;;5.40;86.00;;;;;;5056776;28;20071;-66
2021/11/12 23:07:04;;;;;;;16.85;11.88;;;5.40;86.00;;;;;;5057321;28;20039;-66
2021/11/12 23:09:29;;;;;;;15.23;11.55;;;5.40;86.10;;;;;;5061649;28;20108;-67